sensor_id;sensor_type;location;lat;lon;timestamp;P1;durP1;ratioP1;P2;durP2;ratioP2
38785;SDS011;24535;45.508;12.252;2023-04-07T00:00:28;24.50;;;19.95;;
38785;SDS011;24535;45.508;12.252;2023-04-07T00:02:54;29.55;;;22.45;;
38785;SDS011;24535;45.508;12.252;2023-04-07T00:05:21;24.92;;;21.17;;
38785;SDS011;24535;45.508;12.252;2023-04-07T00:07:46;25.42;;;21.02;;
38785;SDS011;24535;45.508;12.252;2023-04-07T00:10:11;27.17;;;23.00;;
38785;SDS011;24535;45.508;12.252;2023-04-07T00:12:37;27.55;;;22.90;;
38785;SDS011;24535;45.508;12.252;2023-04-07T00:15:02;28.35;;;24.27;;
38785;SDS011;24535;45.508;12.252;2023-04-07T00:17:28;28.05;;;24.30;;
38785;SDS011;24535;45.508;12.252;2023-04-07T00:19:54;32.80;;;24.48;;
38785;SDS011;24535;45.508;12.252;2023-04-07T00:22:19;30.33;;;23.45;;
38785;SDS011;24535;45.508;12.252;2023-04-07T00:24:44;27.10;;;24.13;;
38785;SDS011;24535;45.508;12.252;2023-04-07T00:27:10;32.95;;;24.90;;
38785;SDS011;24535;45.508;12.252;2023-04-07T00:29:35;30.27;;;24.55;;
38785;SDS011;24535;45.508;12.252;2023-04-07T00:32:01;32.95;;;25.25;;
38785;SDS011;24535;45.508;12.252;2023-04-07T00:34:26;28.02;;;23.88;;
38785;SDS011;24535;45.508;12.252;2023-04-07T00:36:52;28.80;;;22.05;;
38785;SDS011;24535;45.508;12.252;2023-04-07T00:39:18;25.67;;;22.80;;
38785;SDS011;24535;45.508;12.252;2023-04-07T00:41:44;26.10;;;23.40;;
38785;SDS011;24535;45.508;12.252;2023-04-07T00:44:10;26.40;;;22.98;;
38785;SDS011;24535;45.508;12.252;2023-04-07T00:46:36;29.65;;;23.42;;
38785;SDS011;24535;45.508;12.252;2023-04-07T00:49:01;28.02;;;23.13;;
38785;SDS011;24535;45.508;12.252;2023-04-07T00:51:27;29.42;;;23.80;;
38785;SDS011;24535;45.508;12.252;2023-04-07T00:53:53;26.73;;;23.75;;
38785;SDS011;24535;45.508;12.252;2023-04-07T00:56:19;26.60;;;20.27;;
38785;SDS011;24535;45.508;12.252;2023-04-07T00:58:44;31.30;;;24.90;;
38785;SDS011;24535;45.508;12.252;2023-04-07T01:04:06;29.45;;;25.15;;
38785;SDS011;24535;45.508;12.252;2023-04-07T01:06:37;32.85;;;24.08;;
38785;SDS011;24535;45.508;12.252;2023-04-07T01:09:19;32.58;;;24.55;;
38785;SDS011;24535;45.508;12.252;2023-04-07T01:12:01;33.05;;;25.73;;
38785;SDS011;24535;45.508;12.252;2023-04-07T01:14:31;30.33;;;25.50;;
38785;SDS011;24535;45.508;12.252;2023-04-07T01:17:05;33.33;;;27.52;;
38785;SDS011;24535;45.508;12.252;2023-04-07T01:22:54;34.65;;;29.60;;
38785;SDS011;24535;45.508;12.252;2023-04-07T01:30:46;34.45;;;24.05;;
38785;SDS011;24535;45.508;12.252;2023-04-07T01:33:13;24.60;;;21.98;;
38785;SDS011;24535;45.508;12.252;2023-04-07T01:35:40;29.75;;;23.95;;
38785;SDS011;24535;45.508;12.252;2023-04-07T01:38:07;25.58;;;21.35;;
38785;SDS011;24535;45.508;12.252;2023-04-07T01:40:33;31.58;;;25.33;;
38785;SDS011;24535;45.508;12.252;2023-04-07T01:43:00;27.80;;;24.02;;
38785;SDS011;24535;45.508;12.252;2023-04-07T01:45:27;28.55;;;25.27;;
38785;SDS011;24535;45.508;12.252;2023-04-07T01:47:54;28.92;;;25.23;;
38785;SDS011;24535;45.508;12.252;2023-04-07T01:50:20;32.10;;;26.33;;
38785;SDS011;24535;45.508;12.252;2023-04-07T01:52:47;31.88;;;27.60;;
38785;SDS011;24535;45.508;12.252;2023-04-07T01:55:13;32.40;;;29.02;;
38785;SDS011;24535;45.508;12.252;2023-04-07T01:57:39;32.28;;;28.75;;
38785;SDS011;24535;45.508;12.252;2023-04-07T02:00:05;35.63;;;29.92;;
38785;SDS011;24535;45.508;12.252;2023-04-07T02:02:32;36.08;;;29.35;;
38785;SDS011;24535;45.508;12.252;2023-04-07T02:05:04;35.38;;;28.98;;
38785;SDS011;24535;45.508;12.252;2023-04-07T02:09:59;35.58;;;29.58;;
38785;SDS011;24535;45.508;12.252;2023-04-07T02:12:28;32.35;;;28.85;;
38785;SDS011;24535;45.508;12.252;2023-04-07T02:14:55;31.70;;;28.38;;
38785;SDS011;24535;45.508;12.252;2023-04-07T02:17:25;31.40;;;27.60;;
38785;SDS011;24535;45.508;12.252;2023-04-07T02:19:52;30.05;;;26.75;;
38785;SDS011;24535;45.508;12.252;2023-04-07T02:22:20;30.88;;;27.52;;
38785;SDS011;24535;45.508;12.252;2023-04-07T02:24:45;35.47;;;27.48;;
38785;SDS011;24535;45.508;12.252;2023-04-07T02:27:11;30.55;;;27.23;;
38785;SDS011;24535;45.508;12.252;2023-04-07T02:29:37;33.55;;;28.02;;
38785;SDS011;24535;45.508;12.252;2023-04-07T02:32:02;33.47;;;27.40;;
38785;SDS011;24535;45.508;12.252;2023-04-07T02:34:28;31.30;;;27.95;;
38785;SDS011;24535;45.508;12.252;2023-04-07T02:36:53;31.70;;;28.27;;
38785;SDS011;24535;45.508;12.252;2023-04-07T02:39:19;39.22;;;30.40;;
38785;SDS011;24535;45.508;12.252;2023-04-07T02:41:44;32.78;;;28.73;;
38785;SDS011;24535;45.508;12.252;2023-04-07T02:44:10;31.73;;;28.35;;
38785;SDS011;24535;45.508;12.252;2023-04-07T02:46:35;29.73;;;26.33;;
38785;SDS011;24535;45.508;12.252;2023-04-07T02:49:00;32.05;;;26.33;;
38785;SDS011;24535;45.508;12.252;2023-04-07T02:51:26;31.27;;;27.20;;
38785;SDS011;24535;45.508;12.252;2023-04-07T02:53:52;37.08;;;28.63;;
38785;SDS011;24535;45.508;12.252;2023-04-07T02:56:18;30.80;;;27.42;;
38785;SDS011;24535;45.508;12.252;2023-04-07T02:58:43;35.83;;;28.10;;
38785;SDS011;24535;45.508;12.252;2023-04-07T03:01:09;31.95;;;28.52;;
38785;SDS011;24535;45.508;12.252;2023-04-07T03:03:34;35.83;;;30.13;;
38785;SDS011;24535;45.508;12.252;2023-04-07T03:06:00;34.42;;;28.88;;
38785;SDS011;24535;45.508;12.252;2023-04-07T03:08:26;35.05;;;29.25;;
38785;SDS011;24535;45.508;12.252;2023-04-07T03:10:51;37.42;;;30.65;;
38785;SDS011;24535;45.508;12.252;2023-04-07T03:13:17;36.97;;;31.35;;
38785;SDS011;24535;45.508;12.252;2023-04-07T03:15:43;35.47;;;29.90;;
38785;SDS011;24535;45.508;12.252;2023-04-07T03:18:09;39.35;;;32.65;;
38785;SDS011;24535;45.508;12.252;2023-04-07T03:20:35;34.20;;;30.25;;
38785;SDS011;24535;45.508;12.252;2023-04-07T03:23:01;40.47;;;31.55;;
38785;SDS011;24535;45.508;12.252;2023-04-07T03:25:27;37.15;;;31.05;;
38785;SDS011;24535;45.508;12.252;2023-04-07T03:27:52;37.63;;;31.20;;
38785;SDS011;24535;45.508;12.252;2023-04-07T03:30:18;35.90;;;31.27;;
38785;SDS011;24535;45.508;12.252;2023-04-07T03:32:44;32.55;;;27.90;;
38785;SDS011;24535;45.508;12.252;2023-04-07T03:35:09;36.35;;;31.10;;
38785;SDS011;24535;45.508;12.252;2023-04-07T03:37:35;35.42;;;31.73;;
38785;SDS011;24535;45.508;12.252;2023-04-07T03:40:00;39.50;;;32.63;;
38785;SDS011;24535;45.508;12.252;2023-04-07T03:42:26;38.88;;;32.70;;
38785;SDS011;24535;45.508;12.252;2023-04-07T03:44:51;42.35;;;33.38;;
38785;SDS011;24535;45.508;12.252;2023-04-07T03:47:17;37.33;;;32.42;;
38785;SDS011;24535;45.508;12.252;2023-04-07T03:49:43;42.38;;;33.40;;
38785;SDS011;24535;45.508;12.252;2023-04-07T03:52:08;37.47;;;32.13;;
38785;SDS011;24535;45.508;12.252;2023-04-07T03:54:34;44.72;;;34.75;;
38785;SDS011;24535;45.508;12.252;2023-04-07T03:57:00;42.92;;;34.38;;
38785;SDS011;24535;45.508;12.252;2023-04-07T03:59:26;37.65;;;33.47;;
38785;SDS011;24535;45.508;12.252;2023-04-07T04:01:52;37.58;;;33.47;;
38785;SDS011;24535;45.508;12.252;2023-04-07T04:04:18;42.95;;;34.20;;
38785;SDS011;24535;45.508;12.252;2023-04-07T04:06:43;41.88;;;33.75;;
38785;SDS011;24535;45.508;12.252;2023-04-07T04:09:09;41.42;;;35.47;;
38785;SDS011;24535;45.508;12.252;2023-04-07T04:11:34;43.60;;;36.47;;
38785;SDS011;24535;45.508;12.252;2023-04-07T04:14:00;39.72;;;34.42;;
38785;SDS011;24535;45.508;12.252;2023-04-07T04:16:26;40.78;;;33.35;;
38785;SDS011;24535;45.508;12.252;2023-04-07T04:18:51;40.35;;;34.45;;
38785;SDS011;24535;45.508;12.252;2023-04-07T04:21:16;37.55;;;33.65;;
38785;SDS011;24535;45.508;12.252;2023-04-07T04:23:42;44.00;;;34.75;;
38785;SDS011;24535;45.508;12.252;2023-04-07T04:26:08;49.65;;;36.58;;
38785;SDS011;24535;45.508;12.252;2023-04-07T04:28:33;44.05;;;36.85;;
38785;SDS011;24535;45.508;12.252;2023-04-07T04:30:58;41.45;;;37.10;;
38785;SDS011;24535;45.508;12.252;2023-04-07T04:33:24;38.05;;;33.97;;
38785;SDS011;24535;45.508;12.252;2023-04-07T04:35:49;42.38;;;36.60;;
38785;SDS011;24535;45.508;12.252;2023-04-07T04:38:15;41.65;;;35.17;;
38785;SDS011;24535;45.508;12.252;2023-04-07T04:40:41;44.08;;;36.53;;
38785;SDS011;24535;45.508;12.252;2023-04-07T04:43:06;41.33;;;35.63;;
38785;SDS011;24535;45.508;12.252;2023-04-07T04:45:33;43.75;;;36.80;;
38785;SDS011;24535;45.508;12.252;2023-04-07T04:47:59;40.47;;;35.13;;
38785;SDS011;24535;45.508;12.252;2023-04-07T04:50:25;45.35;;;37.63;;
38785;SDS011;24535;45.508;12.252;2023-04-07T04:52:51;42.28;;;35.20;;
38785;SDS011;24535;45.508;12.252;2023-04-07T04:55:16;42.45;;;34.80;;
38785;SDS011;24535;45.508;12.252;2023-04-07T04:57:42;38.38;;;32.13;;
38785;SDS011;24535;45.508;12.252;2023-04-07T05:00:07;44.00;;;34.38;;
38785;SDS011;24535;45.508;12.252;2023-04-07T05:02:34;39.92;;;34.55;;
38785;SDS011;24535;45.508;12.252;2023-04-07T05:05:00;42.63;;;35.33;;
38785;SDS011;24535;45.508;12.252;2023-04-07T05:07:26;43.22;;;34.78;;
38785;SDS011;24535;45.508;12.252;2023-04-07T05:09:51;43.15;;;35.15;;
38785;SDS011;24535;45.508;12.252;2023-04-07T05:12:17;46.08;;;35.47;;
38785;SDS011;24535;45.508;12.252;2023-04-07T05:14:42;47.05;;;34.38;;
38785;SDS011;24535;45.508;12.252;2023-04-07T05:17:08;44.38;;;35.20;;
38785;SDS011;24535;45.508;12.252;2023-04-07T05:19:33;40.85;;;33.90;;
38785;SDS011;24535;45.508;12.252;2023-04-07T05:21:59;38.28;;;34.08;;
38785;SDS011;24535;45.508;12.252;2023-04-07T05:24:25;42.00;;;34.63;;
38785;SDS011;24535;45.508;12.252;2023-04-07T05:26:52;37.78;;;33.47;;
38785;SDS011;24535;45.508;12.252;2023-04-07T05:29:18;41.55;;;34.47;;
38785;SDS011;24535;45.508;12.252;2023-04-07T05:31:43;41.33;;;33.88;;
38785;SDS011;24535;45.508;12.252;2023-04-07T05:34:09;40.13;;;34.85;;
38785;SDS011;24535;45.508;12.252;2023-04-07T05:36:34;41.55;;;34.38;;
38785;SDS011;24535;45.508;12.252;2023-04-07T05:39:00;42.53;;;32.63;;
38785;SDS011;24535;45.508;12.252;2023-04-07T05:41:26;36.75;;;32.75;;
38785;SDS011;24535;45.508;12.252;2023-04-07T05:43:51;37.58;;;31.85;;
38785;SDS011;24535;45.508;12.252;2023-04-07T05:46:17;48.38;;;33.85;;
38785;SDS011;24535;45.508;12.252;2023-04-07T05:48:42;41.70;;;31.20;;
38785;SDS011;24535;45.508;12.252;2023-04-07T05:51:08;36.35;;;29.80;;
38785;SDS011;24535;45.508;12.252;2023-04-07T05:53:33;37.03;;;30.80;;
38785;SDS011;24535;45.508;12.252;2023-04-07T05:55:59;36.85;;;29.67;;
38785;SDS011;24535;45.508;12.252;2023-04-07T05:58:24;40.30;;;32.22;;
38785;SDS011;24535;45.508;12.252;2023-04-07T06:00:50;35.90;;;28.52;;
38785;SDS011;24535;45.508;12.252;2023-04-07T06:03:15;40.25;;;29.60;;
38785;SDS011;24535;45.508;12.252;2023-04-07T06:05:41;38.15;;;28.25;;
38785;SDS011;24535;45.508;12.252;2023-04-07T06:08:08;40.72;;;29.20;;
38785;SDS011;24535;45.508;12.252;2023-04-07T06:10:34;36.53;;;28.83;;
38785;SDS011;24535;45.508;12.252;2023-04-07T06:12:59;37.80;;;28.33;;
38785;SDS011;24535;45.508;12.252;2023-04-07T06:15:25;39.65;;;30.02;;
38785;SDS011;24535;45.508;12.252;2023-04-07T06:17:51;41.47;;;29.27;;
38785;SDS011;24535;45.508;12.252;2023-04-07T06:20:16;39.70;;;30.58;;
38785;SDS011;24535;45.508;12.252;2023-04-07T06:22:41;37.90;;;29.48;;
38785;SDS011;24535;45.508;12.252;2023-04-07T06:25:07;46.40;;;32.22;;
38785;SDS011;24535;45.508;12.252;2023-04-07T06:27:34;39.45;;;30.60;;
38785;SDS011;24535;45.508;12.252;2023-04-07T06:30:00;44.53;;;31.95;;
38785;SDS011;24535;45.508;12.252;2023-04-07T06:32:25;36.85;;;29.50;;
38785;SDS011;24535;45.508;12.252;2023-04-07T06:34:52;39.08;;;29.63;;
38785;SDS011;24535;45.508;12.252;2023-04-07T06:37:17;33.33;;;28.00;;
38785;SDS011;24535;45.508;12.252;2023-04-07T06:39:43;42.22;;;30.27;;
38785;SDS011;24535;45.508;12.252;2023-04-07T06:42:09;40.92;;;28.27;;
38785;SDS011;24535;45.508;12.252;2023-04-07T06:44:34;47.28;;;31.40;;
38785;SDS011;24535;45.508;12.252;2023-04-07T06:47:00;38.15;;;30.40;;
38785;SDS011;24535;45.508;12.252;2023-04-07T06:49:25;39.35;;;29.65;;
38785;SDS011;24535;45.508;12.252;2023-04-07T06:51:51;39.45;;;30.48;;
38785;SDS011;24535;45.508;12.252;2023-04-07T06:54:16;41.83;;;31.75;;
38785;SDS011;24535;45.508;12.252;2023-04-07T06:56:42;40.08;;;30.33;;
38785;SDS011;24535;45.508;12.252;2023-04-07T06:59:07;39.30;;;29.67;;
38785;SDS011;24535;45.508;12.252;2023-04-07T07:01:33;40.90;;;30.77;;
38785;SDS011;24535;45.508;12.252;2023-04-07T07:03:59;37.88;;;29.52;;
38785;SDS011;24535;45.508;12.252;2023-04-07T07:06:25;41.33;;;29.20;;
38785;SDS011;24535;45.508;12.252;2023-04-07T07:08:51;44.60;;;28.83;;
38785;SDS011;24535;45.508;12.252;2023-04-07T07:11:17;40.70;;;29.10;;
38785;SDS011;24535;45.508;12.252;2023-04-07T07:13:43;36.45;;;24.77;;
38785;SDS011;24535;45.508;12.252;2023-04-07T07:16:09;31.17;;;25.90;;
38785;SDS011;24535;45.508;12.252;2023-04-07T07:18:36;32.28;;;26.25;;
38785;SDS011;24535;45.508;12.252;2023-04-07T07:21:02;32.83;;;25.67;;
38785;SDS011;24535;45.508;12.252;2023-04-07T07:23:28;37.50;;;26.83;;
38785;SDS011;24535;45.508;12.252;2023-04-07T07:25:53;35.05;;;27.92;;
38785;SDS011;24535;45.508;12.252;2023-04-07T07:28:19;34.05;;;25.58;;
38785;SDS011;24535;45.508;12.252;2023-04-07T07:30:45;32.53;;;27.35;;
38785;SDS011;24535;45.508;12.252;2023-04-07T07:33:11;35.55;;;26.05;;
38785;SDS011;24535;45.508;12.252;2023-04-07T07:35:37;35.72;;;26.35;;
38785;SDS011;24535;45.508;12.252;2023-04-07T07:38:02;35.28;;;25.08;;
38785;SDS011;24535;45.508;12.252;2023-04-07T07:40:28;38.17;;;26.63;;
38785;SDS011;24535;45.508;12.252;2023-04-07T07:42:53;35.63;;;27.20;;
38785;SDS011;24535;45.508;12.252;2023-04-07T07:45:19;33.15;;;26.67;;
38785;SDS011;24535;45.508;12.252;2023-04-07T07:47:44;34.72;;;28.38;;
38785;SDS011;24535;45.508;12.252;2023-04-07T07:50:10;32.47;;;26.77;;
38785;SDS011;24535;45.508;12.252;2023-04-07T07:52:36;36.60;;;26.65;;
38785;SDS011;24535;45.508;12.252;2023-04-07T07:55:01;34.45;;;27.13;;
38785;SDS011;24535;45.508;12.252;2023-04-07T07:57:27;33.50;;;25.38;;
38785;SDS011;24535;45.508;12.252;2023-04-07T07:59:55;27.35;;;24.10;;
38785;SDS011;24535;45.508;12.252;2023-04-07T08:02:21;32.88;;;26.20;;
38785;SDS011;24535;45.508;12.252;2023-04-07T08:04:46;33.25;;;26.75;;
38785;SDS011;24535;45.508;12.252;2023-04-07T08:07:12;31.92;;;24.85;;
38785;SDS011;24535;45.508;12.252;2023-04-07T08:09:37;32.22;;;23.60;;
38785;SDS011;24535;45.508;12.252;2023-04-07T08:12:03;33.22;;;22.17;;
38785;SDS011;24535;45.508;12.252;2023-04-07T08:14:28;33.80;;;20.50;;
38785;SDS011;24535;45.508;12.252;2023-04-07T08:16:54;28.63;;;18.90;;
38785;SDS011;24535;45.508;12.252;2023-04-07T08:19:22;26.80;;;18.77;;
38785;SDS011;24535;45.508;12.252;2023-04-07T08:21:48;29.23;;;17.95;;
38785;SDS011;24535;45.508;12.252;2023-04-07T08:24:14;27.58;;;18.08;;
38785;SDS011;24535;45.508;12.252;2023-04-07T08:26:40;24.88;;;15.70;;
38785;SDS011;24535;45.508;12.252;2023-04-07T08:29:05;21.80;;;16.25;;
38785;SDS011;24535;45.508;12.252;2023-04-07T08:31:30;25.02;;;17.50;;
38785;SDS011;24535;45.508;12.252;2023-04-07T08:33:56;23.10;;;16.55;;
38785;SDS011;24535;45.508;12.252;2023-04-07T08:36:25;27.02;;;16.45;;
38785;SDS011;24535;45.508;12.252;2023-04-07T08:38:52;22.27;;;17.40;;
38785;SDS011;24535;45.508;12.252;2023-04-07T08:41:36;21.92;;;17.38;;
38785;SDS011;24535;45.508;12.252;2023-04-07T08:44:05;23.45;;;16.98;;
38785;SDS011;24535;45.508;12.252;2023-04-07T08:46:32;23.17;;;16.17;;
38785;SDS011;24535;45.508;12.252;2023-04-07T08:48:58;19.30;;;15.13;;
38785;SDS011;24535;45.508;12.252;2023-04-07T08:51:31;22.42;;;16.05;;
38785;SDS011;24535;45.508;12.252;2023-04-07T08:54:04;23.52;;;16.80;;
38785;SDS011;24535;45.508;12.252;2023-04-07T08:56:33;18.63;;;13.88;;
38785;SDS011;24535;45.508;12.252;2023-04-07T08:59:00;20.73;;;16.30;;
38785;SDS011;24535;45.508;12.252;2023-04-07T09:01:26;21.65;;;14.75;;
38785;SDS011;24535;45.508;12.252;2023-04-07T09:03:53;20.20;;;15.30;;
38785;SDS011;24535;45.508;12.252;2023-04-07T09:06:22;22.23;;;14.40;;
38785;SDS011;24535;45.508;12.252;2023-04-07T09:08:48;29.20;;;14.30;;
38785;SDS011;24535;45.508;12.252;2023-04-07T09:11:13;16.75;;;12.55;;
38785;SDS011;24535;45.508;12.252;2023-04-07T09:13:39;19.77;;;12.88;;
38785;SDS011;24535;45.508;12.252;2023-04-07T09:16:05;24.65;;;15.05;;
38785;SDS011;24535;45.508;12.252;2023-04-07T09:18:33;20.50;;;14.98;;
38785;SDS011;24535;45.508;12.252;2023-04-07T09:21:00;21.83;;;16.75;;
38785;SDS011;24535;45.508;12.252;2023-04-07T09:23:31;17.98;;;13.05;;
38785;SDS011;24535;45.508;12.252;2023-04-07T09:25:58;17.13;;;13.10;;
38785;SDS011;24535;45.508;12.252;2023-04-07T09:28:37;20.58;;;14.73;;
38785;SDS011;24535;45.508;12.252;2023-04-07T09:31:05;17.73;;;12.80;;
38785;SDS011;24535;45.508;12.252;2023-04-07T09:33:30;21.85;;;14.85;;
38785;SDS011;24535;45.508;12.252;2023-04-07T09:35:56;21.70;;;14.82;;
38785;SDS011;24535;45.508;12.252;2023-04-07T09:38:22;16.67;;;11.95;;
38785;SDS011;24535;45.508;12.252;2023-04-07T09:41:04;18.58;;;12.15;;
38785;SDS011;24535;45.508;12.252;2023-04-07T09:43:34;18.05;;;13.93;;
38785;SDS011;24535;45.508;12.252;2023-04-07T09:46:17;14.65;;;10.88;;
38785;SDS011;24535;45.508;12.252;2023-04-07T09:48:44;17.95;;;11.25;;
38785;SDS011;24535;45.508;12.252;2023-04-07T09:51:11;14.98;;;10.68;;
38785;SDS011;24535;45.508;12.252;2023-04-07T09:56:16;17.30;;;10.30;;
38785;SDS011;24535;45.508;12.252;2023-04-07T09:58:46;13.95;;;9.90;;
38785;SDS011;24535;45.508;12.252;2023-04-07T10:03:38;17.67;;;11.60;;
38785;SDS011;24535;45.508;12.252;2023-04-07T10:06:04;22.45;;;12.90;;
38785;SDS011;24535;45.508;12.252;2023-04-07T10:08:31;15.25;;;11.20;;
38785;SDS011;24535;45.508;12.252;2023-04-07T10:10:59;20.42;;;11.35;;
38785;SDS011;24535;45.508;12.252;2023-04-07T10:13:27;14.65;;;10.20;;
38785;SDS011;24535;45.508;12.252;2023-04-07T10:15:55;20.85;;;12.70;;
38785;SDS011;24535;45.508;12.252;2023-04-07T10:18:21;20.48;;;12.80;;
38785;SDS011;24535;45.508;12.252;2023-04-07T10:20:50;17.23;;;11.65;;
38785;SDS011;24535;45.508;12.252;2023-04-07T10:23:19;14.82;;;10.35;;
38785;SDS011;24535;45.508;12.252;2023-04-07T10:25:48;15.88;;;10.20;;
38785;SDS011;24535;45.508;12.252;2023-04-07T10:28:17;17.48;;;12.00;;
38785;SDS011;24535;45.508;12.252;2023-04-07T10:30:45;15.90;;;10.05;;
38785;SDS011;24535;45.508;12.252;2023-04-07T10:33:13;14.13;;;9.35;;
38785;SDS011;24535;45.508;12.252;2023-04-07T10:38:30;18.20;;;13.77;;
38785;SDS011;24535;45.508;12.252;2023-04-07T10:40:56;21.52;;;12.80;;
38785;SDS011;24535;45.508;12.252;2023-04-07T10:43:38;18.58;;;12.82;;
38785;SDS011;24535;45.508;12.252;2023-04-07T10:46:06;17.00;;;11.02;;
38785;SDS011;24535;45.508;12.252;2023-04-07T10:48:31;18.70;;;12.90;;
38785;SDS011;24535;45.508;12.252;2023-04-07T10:53:29;19.00;;;14.32;;
38785;SDS011;24535;45.508;12.252;2023-04-07T10:55:55;15.95;;;11.50;;
38785;SDS011;24535;45.508;12.252;2023-04-07T10:58:30;18.30;;;12.15;;
38785;SDS011;24535;45.508;12.252;2023-04-07T11:03:25;15.73;;;10.73;;
38785;SDS011;24535;45.508;12.252;2023-04-07T11:06:01;18.90;;;12.90;;
38785;SDS011;24535;45.508;12.252;2023-04-07T11:08:34;20.08;;;12.52;;
38785;SDS011;24535;45.508;12.252;2023-04-07T11:11:13;18.83;;;13.15;;
38785;SDS011;24535;45.508;12.252;2023-04-07T11:13:43;14.65;;;9.65;;
38785;SDS011;24535;45.508;12.252;2023-04-07T11:16:13;20.85;;;12.05;;
38785;SDS011;24535;45.508;12.252;2023-04-07T11:18:40;16.65;;;11.35;;
38785;SDS011;24535;45.508;12.252;2023-04-07T11:21:07;15.30;;;9.85;;
38785;SDS011;24535;45.508;12.252;2023-04-07T11:23:42;14.00;;;10.68;;
38785;SDS011;24535;45.508;12.252;2023-04-07T11:26:10;15.45;;;10.00;;
38785;SDS011;24535;45.508;12.252;2023-04-07T11:28:46;22.48;;;12.57;;
38785;SDS011;24535;45.508;12.252;2023-04-07T11:31:29;13.68;;;10.18;;
38785;SDS011;24535;45.508;12.252;2023-04-07T11:34:02;16.05;;;10.68;;
38785;SDS011;24535;45.508;12.252;2023-04-07T11:36:30;13.23;;;9.23;;
38785;SDS011;24535;45.508;12.252;2023-04-07T11:38:57;16.30;;;11.27;;
38785;SDS011;24535;45.508;12.252;2023-04-07T11:41:27;17.08;;;10.30;;
38785;SDS011;24535;45.508;12.252;2023-04-07T11:44:10;17.55;;;9.43;;
38785;SDS011;24535;45.508;12.252;2023-04-07T11:46:36;14.57;;;8.23;;
38785;SDS011;24535;45.508;12.252;2023-04-07T11:49:17;21.90;;;13.88;;
38785;SDS011;24535;45.508;12.252;2023-04-07T11:51:43;16.80;;;12.77;;
38785;SDS011;24535;45.508;12.252;2023-04-07T11:54:09;16.00;;;11.77;;
38785;SDS011;24535;45.508;12.252;2023-04-07T11:56:42;16.80;;;11.52;;
38785;SDS011;24535;45.508;12.252;2023-04-07T11:59:08;16.67;;;10.80;;
38785;SDS011;24535;45.508;12.252;2023-04-07T12:01:44;19.13;;;11.15;;
38785;SDS011;24535;45.508;12.252;2023-04-07T12:04:11;14.80;;;9.18;;
38785;SDS011;24535;45.508;12.252;2023-04-07T12:06:38;15.00;;;9.85;;
38785;SDS011;24535;45.508;12.252;2023-04-07T12:09:06;18.33;;;11.85;;
38785;SDS011;24535;45.508;12.252;2023-04-07T12:11:33;23.35;;;11.93;;
38785;SDS011;24535;45.508;12.252;2023-04-07T12:14:00;17.98;;;11.25;;
38785;SDS011;24535;45.508;12.252;2023-04-07T12:16:26;16.67;;;11.77;;
38785;SDS011;24535;45.508;12.252;2023-04-07T12:18:51;16.15;;;11.10;;
38785;SDS011;24535;45.508;12.252;2023-04-07T12:21:17;19.77;;;12.55;;
38785;SDS011;24535;45.508;12.252;2023-04-07T12:23:43;22.02;;;12.45;;
38785;SDS011;24535;45.508;12.252;2023-04-07T12:26:10;20.15;;;13.45;;
38785;SDS011;24535;45.508;12.252;2023-04-07T12:28:36;19.30;;;13.75;;
38785;SDS011;24535;45.508;12.252;2023-04-07T12:31:02;21.15;;;13.75;;
38785;SDS011;24535;45.508;12.252;2023-04-07T12:33:28;23.60;;;14.32;;
38785;SDS011;24535;45.508;12.252;2023-04-07T12:35:54;20.55;;;12.68;;
38785;SDS011;24535;45.508;12.252;2023-04-07T12:38:21;19.40;;;13.23;;
38785;SDS011;24535;45.508;12.252;2023-04-07T12:40:46;19.55;;;12.25;;
38785;SDS011;24535;45.508;12.252;2023-04-07T12:43:12;21.13;;;13.40;;
38785;SDS011;24535;45.508;12.252;2023-04-07T12:45:37;21.55;;;13.35;;
38785;SDS011;24535;45.508;12.252;2023-04-07T12:48:03;18.23;;;12.30;;
38785;SDS011;24535;45.508;12.252;2023-04-07T12:50:29;19.77;;;13.25;;
38785;SDS011;24535;45.508;12.252;2023-04-07T12:52:55;24.13;;;13.40;;
38785;SDS011;24535;45.508;12.252;2023-04-07T12:55:22;19.13;;;12.77;;
38785;SDS011;24535;45.508;12.252;2023-04-07T12:57:48;19.95;;;12.77;;
38785;SDS011;24535;45.508;12.252;2023-04-07T13:00:14;20.35;;;13.82;;
38785;SDS011;24535;45.508;12.252;2023-04-07T13:02:40;18.17;;;12.63;;
38785;SDS011;24535;45.508;12.252;2023-04-07T13:05:06;20.13;;;12.45;;
38785;SDS011;24535;45.508;12.252;2023-04-07T13:07:32;18.20;;;10.77;;
38785;SDS011;24535;45.508;12.252;2023-04-07T13:09:59;21.30;;;12.25;;
38785;SDS011;24535;45.508;12.252;2023-04-07T13:12:24;19.13;;;12.27;;
38785;SDS011;24535;45.508;12.252;2023-04-07T13:14:50;17.77;;;11.68;;
38785;SDS011;24535;45.508;12.252;2023-04-07T13:17:16;16.33;;;9.32;;
38785;SDS011;24535;45.508;12.252;2023-04-07T13:19:42;12.90;;;9.77;;
38785;SDS011;24535;45.508;12.252;2023-04-07T13:22:11;16.45;;;9.45;;
38785;SDS011;24535;45.508;12.252;2023-04-07T13:24:36;15.65;;;10.48;;
38785;SDS011;24535;45.508;12.252;2023-04-07T13:27:02;13.90;;;9.05;;
38785;SDS011;24535;45.508;12.252;2023-04-07T13:29:27;12.45;;;7.68;;
38785;SDS011;24535;45.508;12.252;2023-04-07T13:31:59;13.00;;;7.80;;
38785;SDS011;24535;45.508;12.252;2023-04-07T13:34:28;9.63;;;6.90;;
38785;SDS011;24535;45.508;12.252;2023-04-07T13:36:54;14.73;;;9.13;;
38785;SDS011;24535;45.508;12.252;2023-04-07T13:39:19;16.88;;;10.98;;
38785;SDS011;24535;45.508;12.252;2023-04-07T13:41:45;15.90;;;10.65;;
38785;SDS011;24535;45.508;12.252;2023-04-07T13:44:10;14.65;;;11.13;;
38785;SDS011;24535;45.508;12.252;2023-04-07T13:46:36;14.82;;;10.68;;
38785;SDS011;24535;45.508;12.252;2023-04-07T13:49:01;15.25;;;10.25;;
38785;SDS011;24535;45.508;12.252;2023-04-07T13:51:27;14.32;;;8.95;;
38785;SDS011;24535;45.508;12.252;2023-04-07T13:53:53;16.27;;;11.55;;
38785;SDS011;24535;45.508;12.252;2023-04-07T13:56:18;20.75;;;11.95;;
38785;SDS011;24535;45.508;12.252;2023-04-07T13:58:44;17.75;;;11.13;;
38785;SDS011;24535;45.508;12.252;2023-04-07T14:01:10;17.38;;;11.25;;
38785;SDS011;24535;45.508;12.252;2023-04-07T14:03:35;17.08;;;10.57;;
38785;SDS011;24535;45.508;12.252;2023-04-07T14:06:01;16.33;;;11.57;;
38785;SDS011;24535;45.508;12.252;2023-04-07T14:08:27;17.42;;;11.15;;
38785;SDS011;24535;45.508;12.252;2023-04-07T14:10:52;21.75;;;10.85;;
38785;SDS011;24535;45.508;12.252;2023-04-07T14:13:18;17.50;;;10.38;;
38785;SDS011;24535;45.508;12.252;2023-04-07T14:15:44;17.85;;;10.30;;
38785;SDS011;24535;45.508;12.252;2023-04-07T14:18:09;16.42;;;11.65;;
38785;SDS011;24535;45.508;12.252;2023-04-07T14:20:35;15.63;;;11.25;;
38785;SDS011;24535;45.508;12.252;2023-04-07T14:23:01;18.20;;;11.32;;
38785;SDS011;24535;45.508;12.252;2023-04-07T14:25:26;13.95;;;10.10;;
38785;SDS011;24535;45.508;12.252;2023-04-07T14:27:52;15.15;;;9.80;;
38785;SDS011;24535;45.508;12.252;2023-04-07T14:30:17;16.05;;;9.88;;
38785;SDS011;24535;45.508;12.252;2023-04-07T14:32:43;19.15;;;11.18;;